ADDS METAR Data INFO
IDs: Format: Raw Decoded Include TAF

Data at: 1211 UTC 21 Jun 2018

KSBN 211154Z 11011KT 7SM FEW011 SCT095 19/17 A2982 RMK AO2 SLP095 T01890167 10189 20189 51002
KSBN 211151Z 11010KT 7SM FEW011 SCT095 19/17 A2982 RMK AO2
KSBN 211054Z 11012KT 5SM BR OVC009 19/17 A2982 RMK AO2 SLP093 T01890167
KSBN 210954Z 09007KT 5SM BR OVC008 19/17 A2982 RMK AO2 SLP093 T01890172
KSBN 210933Z 08007KT 6SM BR OVC009 19/17 A2981 RMK AO2 T01890172
KSBN 210920Z 08006KT 7SM OVC010 19/17 A2982 RMK AO2 T01890172
KSBN 210854Z 10006KT 7SM OVC009 19/17 A2982 RMK AO2 SLP093 T01890172 56013
KSBN 210754Z 13008KT 7SM OVC008 19/17 A2983 RMK AO2 SLP098 T01890172
KSBN 210654Z 08007KT 7SM OVC008 19/17 A2983 RMK AO2 SLP097 T01890172
KSBN 210634Z 10008KT 7SM OVC009 19/17 A2984 RMK AO2 T01890172
KSBN 210554Z 08004KT 7SM OVC010 19/17 A2986 RMK AO2 SLP107 T01890172 10206 20183 56009
KSBN 210454Z 07004KT 7SM OVC010 18/17 A2986 RMK AO2 SLP108 T01830172 402280183
KSBN 210415Z 07003KT 7SM BKN010 BKN020 19/17 A2987 RMK AO2 T01890172
KSBN 210354Z 07003KT 8SM FEW009 BKN019 19/17 A2987 RMK AO2 SLP111 T01890172
KSBN 210322Z VRB03KT 9SM SCT009 OVC018 19/17 A2988 RMK AO2 T01940172
KSBN 210306Z 08005KT 9SM BKN010 OVC017 19/17 A2988 RMK AO2 T01940172
KSBN 210254Z 08004KT 9SM SCT009 OVC017 19/17 A2988 RMK AO2 SLP115 T01940172 51012
KSBN 210154Z 05005KT 9SM BKN009 OVC017 19/18 A2987 RMK AO2 SLP111 T01940178
KSBN 210054Z 03006KT 7SM BKN012 OVC018 21/18 A2987 RMK AO2 SLP110 T02060183
KSBN 202354Z 03006KT 7SM OVC009 21/18 A2985 RMK AO2 CIG 007V012 SLP103 T02060183 10228 20200 53001
KSBN 202254Z 04007KT 5SM BR OVC007 21/19 A2983 RMK AO2 CIG 006V011 SLP097 T02060189
KSBN 202247Z 03008KT 6SM BR OVC009 21/19 A2983 RMK AO2 CIG 006V011 T02060189
KSBN 202212Z 01005KT 8SM BKN010 OVC015 21/19 A2985 RMK AO2 CIG 008V013 T02110194
KSBN 202154Z 01007KT 9SM FEW009 BKN015 OVC020 22/19 A2985 RMK AO2 SLP102 T02170194
KSBN 202113Z 03004KT 9SM FEW006 BKN013 OVC017 22/19 A2985 RMK AO2 T02220194
KSBN 202103Z 00000KT 8SM SCT006 SCT011 OVC017 22/19 A2984 RMK AO2 T02220194
KSBN 202054Z 00000KT 7SM BKN006 BKN010 OVC017 22/19 A2984 RMK AO2 SLP101 T02220194 58011
KSBN 202003Z 31006KT 6SM BR OVC007 22/19 A2986 RMK AO2 CIG 007V010 T02170194
KSBN 201954Z 29006KT 7SM BKN010 OVC015 22/20 A2987 RMK AO2 CIG 007V011 SLP109 T02170200
KSBN 201854Z 30007KT 9SM OVC011 22/19 A2987 RMK AO2 SLP110 T02220194
KSBN 201754Z 32005KT 9SM OVC009 22/19 A2988 RMK AO2 CIG 007V012 SLP113 T02220194 10222 20194 50002
KSBN 201656Z 29007KT 2SM BR OVC003 21/19 A2988 RMK AO2 T02060194
KSBN 201654Z 27006KT 1 1/4SM BR OVC003 21/19 A2988 RMK AO2 SLP115 T02060194
KSBN 201554Z 29003KT 1 1/4SM BR OVC003 21/20 A2988 RMK AO2 SLP113 T02060200
KSBN 201516Z 27005KT 1 1/2SM BR OVC003 21/20 A2987 RMK AO2 CIG 002V006 T02060200
KSBN 201454Z 29004KT 2 1/2SM BR OVC005 21/20 A2987 RMK AO2 SLP111 T02110200 53003
KSBN 201447Z 26005KT 2SM BR OVC005 21/20 A2987 RMK AO2 T02110200
KSBN 201357Z 29003KT 2SM BR OVC002 21/19 A2987 RMK AO2 T02060194
KSBN 201354Z 28004KT 1SM R27L/P6000FT BR OVC002 21/19 A2987 RMK AO2 SLP111 T02060194
KSBN 201337Z 00000KT 1SM R27L/P6000FT BR OVC002 20/20 A2987 RMK AO2 T02000200
KSBN 201254Z 30005KT 1/2SM R27L/P6000FT FG OVC002 20/19 A2986 RMK AO2 SLP108 T02000194
KSBN 201217Z 29003KT 1/2SM R27L/5000VP6000FT FG OVC002 19/19 A2986 RMK AO2 T01940194
KSBN 201209Z 29004KT 3/4SM R27L/P6000FT BR OVC002 20/19 A2986 RMK AO2 T02000194
KSBN 201154Z 30005KT 1 1/4SM BR OVC002 20/19 A2987 RMK AO2 SLP108 70032 T02000194 10217 20200 53003
KSBN 201146Z 30005KT 1 1/4SM R27L/6000VP6000FT BR OVC002 20/19 A2986 RMK AO2 T02000194
KSBN 201059Z 32004KT 3/4SM R27L/5000VP6000FT BR OVC002 20/20 A2986 RMK AO2 T02000200
KSBN 201054Z 31005KT 1SM R27L/P6000FT BR OVC002 21/20 A2986 RMK AO2 SLP106 T02060200
KSBN 200954Z 23005KT 1 1/2SM BR OVC003 21/21 A2986 RMK AO2 SLP104 T02110206
KSBN 200932Z 23005KT 3SM BR OVC004 21/21 A2986 RMK AO2 CIG 002V007 T02110211
KSBN 200920Z AUTO 23005KT 4SM BR OVC005 22/21 A2985 RMK AO2 CIG 003V007 T02170211
KSBN 200854Z AUTO 25005KT 4SM BR OVC004 22/21 A2986 RMK AO2 SLP104 T02170211 56010
KSBN 200754Z AUTO 19005KT 10SM OVC007 22/21 A2986 RMK AO2 SLP106 T02170206
KSBN 200730Z AUTO 00000KT 10SM OVC008 22/21 A2987 RMK AO2 LTG DSNT N T02170206
KSBN 200715Z AUTO 18004KT 10SM VCTS OVC009 22/21 A2987 RMK AO2 LTG DSNT N AND NW T02170206
KSBN 200654Z AUTO 17005KT 10SM OVC009 22/21 A2987 RMK AO2 LTG DSNT NW CIG 007V011 SLP110 T02170206
KSBN 200633Z AUTO 15007KT 10SM OVC011 22/21 A2987 RMK AO2 LTG DSNT NW T02170206
KSBN 200604Z AUTO 16007KT 10SM OVC008 22/21 A2989 RMK AO2 T02170206
KSBN 200554Z AUTO 15007KT 10SM OVC010 22/21 A2989 RMK AO2 LTG DSNT NW SLP115 60000 T02170206 10228 20217 53001
KSBN 200530Z AUTO 16005KT 10SM BKN012 BKN026 OVC032 22/21 A2989 RMK AO2 T02220206
KSBN 200504Z AUTO 15007KT 10SM OVC030 22/21 A2989 RMK AO2 T02220206
KSBN 200454Z AUTO 15007KT 10SM FEW023 OVC029 22/21 A2989 RMK AO2 RAB43E52 SLP117 P0000 T02220206 402830200
KSBN 200354Z AUTO 13006KT 10SM OVC021 22/21 A2988 RMK AO2 SLP112 T02220206
KSBN 200254Z 13006KT 10SM OVC020 22/21 A2989 RMK AO2 SLP115 60000 T02220206 58005
KSBN 200154Z 11008KT 10SM BKN009 BKN024 22/21 A2989 RMK AO2 CIG 008V013 SLP117 T02220206
KSBN 200147Z 11006KT 10SM BKN009 22/21 A2990 RMK AO2 CIG 008V013 T02220206
KSBN 200115Z 10007KT 10SM BKN011 OVC022 22/20 A2990 RMK AO2 T02220200
KSBN 200104Z 09006KT 10SM SCT013 BKN021 BKN032 22/20 A2990 RMK AO2 T02220200
KSBN 200054Z 10006KT 10SM SCT013 BKN032 22/20 A2990 RMK AO2 RAE10 TSE2359 SLP120 P0000 T02220200